createdAt,value
2023-02-13T00:04:55.463Z,8.78
2023-02-13T00:09:57.628Z,8.73
2023-02-13T00:15:00.384Z,8.66
2023-02-13T00:20:02.295Z,8.68
2023-02-13T00:25:05.920Z,8.57
2023-02-13T00:30:08.703Z,8.55
2023-02-13T00:35:10.605Z,8.56
2023-02-13T00:40:12.870Z,8.53
2023-02-13T00:45:14.707Z,8.44
2023-02-13T00:50:16.661Z,8.44
2023-02-13T00:55:18.488Z,8.43
2023-02-13T01:00:20.684Z,8.48
2023-02-13T01:05:23.092Z,8.44
2023-02-13T01:10:25.108Z,8.39
2023-02-13T01:15:27.053Z,8.41
2023-02-13T01:20:30.511Z,8.45
2023-02-13T01:25:32.376Z,8.51
2023-02-13T01:30:34.928Z,8.51
2023-02-13T01:35:40.170Z,8.47
2023-02-13T01:40:47.656Z,8.49
2023-02-13T01:45:53.736Z,8.47
2023-02-13T01:51:00.993Z,8.44
2023-02-13T01:56:09.503Z,8.51
2023-02-13T02:01:11.938Z,8.54
2023-02-13T02:06:25.674Z,8.60
2023-02-13T02:11:36.225Z,8.69
2023-02-13T02:16:39.852Z,8.76
2023-02-13T02:22:00.454Z,8.81
2023-02-13T02:27:15.297Z,8.85
2023-02-13T02:32:34.309Z,8.92
2023-02-13T02:37:53.057Z,8.97
2023-02-13T02:43:13.943Z,8.93
2023-02-13T02:49:07.573Z,8.88
2023-02-13T02:54:53.417Z,8.88
2023-02-13T03:00:16.001Z,8.88
2023-02-13T03:05:41.877Z,8.82
2023-02-13T03:11:02.616Z,8.82
2023-02-13T03:16:23.757Z,8.79
2023-02-13T03:22:02.395Z,8.85
2023-02-13T03:27:57.610Z,8.88
2023-02-13T03:33:24.705Z,8.94
2023-02-13T03:39:00.420Z,8.93
2023-02-13T03:44:13.754Z,8.98
2023-02-13T03:49:57.459Z,8.97
2023-02-13T03:55:23.482Z,8.98
2023-02-13T04:00:30.626Z,9.01
2023-02-13T04:05:37.082Z,9.03
2023-02-13T04:10:50.586Z,8.89
2023-02-13T04:16:42.193Z,8.83
2023-02-13T04:21:43.959Z,8.73
2023-02-13T04:26:46.367Z,8.77
2023-02-13T04:31:48.542Z,8.77
2023-02-13T04:36:50.462Z,8.77
2023-02-13T04:41:52.292Z,8.77
2023-02-13T04:46:54.105Z,8.79
2023-02-13T04:51:56.205Z,8.78
2023-02-13T04:56:58.082Z,8.83
2023-02-13T05:01:59.969Z,8.92
2023-02-13T05:07:01.821Z,8.97
2023-02-13T05:12:03.946Z,8.96
2023-02-13T05:17:06.035Z,8.82
2023-02-13T05:22:28.604Z,8.70
2023-02-13T05:27:30.425Z,8.66
2023-02-13T05:32:32.261Z,8.65
2023-02-13T05:37:34.124Z,8.67
2023-02-13T05:42:36.209Z,8.64
2023-02-13T05:47:38.079Z,8.58
2023-02-13T05:52:39.915Z,8.54
2023-02-13T05:57:41.742Z,8.57
2023-02-13T06:02:43.701Z,8.59
2023-02-13T06:07:45.607Z,8.60
2023-02-13T06:12:47.432Z,8.61
2023-02-13T06:17:49.258Z,8.63
2023-02-13T06:22:52.351Z,8.68
2023-02-13T06:27:54.528Z,8.65
2023-02-13T06:32:56.462Z,8.45
2023-02-13T06:37:58.454Z,8.39
2023-02-13T06:43:00.394Z,8.40
2023-02-13T06:48:02.257Z,8.43
2023-02-13T06:53:04.148Z,8.38
2023-02-13T06:58:06.494Z,8.42
2023-02-13T07:03:10.082Z,8.42
2023-02-13T07:08:12.902Z,8.39
2023-02-13T07:13:14.775Z,8.32
2023-02-13T07:18:16.617Z,8.44
2023-02-13T07:23:18.510Z,8.43
2023-02-13T07:28:20.442Z,8.46
2023-02-13T07:33:23.013Z,8.45
2023-02-13T07:38:24.878Z,8.48
2023-02-13T07:43:27.291Z,8.48
2023-02-13T07:48:29.751Z,8.38
2023-02-13T07:53:32.404Z,8.38
2023-02-13T07:58:34.312Z,8.42
2023-02-13T08:03:36.323Z,8.36
2023-02-13T08:08:38.963Z,8.42
2023-02-13T08:13:41.804Z,8.53
2023-02-13T08:18:43.677Z,8.61
2023-02-13T08:23:45.542Z,8.66
2023-02-13T08:28:47.466Z,8.72
2023-02-13T08:33:49.303Z,8.67
2023-02-13T08:38:51.307Z,8.72
2023-02-13T08:43:54.375Z,8.61
2023-02-13T08:48:56.267Z,8.59
2023-02-13T08:53:58.088Z,8.53
2023-02-13T08:59:00.040Z,8.58
2023-02-13T09:04:01.906Z,8.46
2023-02-13T09:09:05.351Z,8.44
2023-02-13T09:14:07.531Z,8.43
2023-02-13T09:19:09.414Z,8.45
2023-02-13T09:24:11.478Z,8.48
2023-02-13T09:29:13.383Z,8.47
2023-02-13T09:34:15.272Z,8.38
2023-02-13T09:39:17.137Z,8.47
2023-02-13T09:44:34.169Z,8.60
2023-02-13T09:49:40.735Z,8.52
2023-02-13T09:54:42.774Z,8.52
2023-02-13T09:59:57.513Z,8.54
2023-02-13T10:05:19.275Z,8.53
2023-02-13T10:10:32.934Z,8.58
2023-02-13T10:15:40.316Z,8.69
2023-02-13T10:20:55.990Z,8.80
2023-02-13T10:26:03.949Z,8.90
2023-02-13T10:31:12.826Z,8.93
2023-02-13T10:36:28.589Z,9.01
2023-02-13T10:41:30.353Z,9.07
2023-02-13T11:26:12.069Z,9.33
2023-02-13T11:31:22.960Z,9.39
2023-02-13T11:36:33.809Z,9.51
2023-02-13T11:41:43.825Z,9.59
2023-02-13T11:46:51.277Z,9.64
2023-02-13T11:51:56.118Z,9.61
2023-02-13T11:57:05.508Z,9.27
2023-02-13T12:02:14.192Z,9.36
2023-02-13T12:07:26.758Z,9.60
2023-02-13T12:12:56.500Z,9.80
2023-02-13T12:18:09.529Z,10.02
2023-02-13T12:23:27.456Z,10.22
2023-02-13T12:28:58.189Z,10.42
2023-02-13T12:34:09.060Z,10.53
2023-02-13T12:39:40.402Z,10.45
2023-02-13T12:45:00.604Z,10.27
2023-02-13T12:50:30.184Z,10.26
2023-02-13T12:55:31.946Z,10.28
2023-02-13T13:01:01.788Z,10.34
2023-02-13T13:06:22.713Z,10.31
2023-02-13T13:12:12.219Z,10.43
2023-02-13T13:17:22.958Z,10.44
2023-02-13T13:22:38.838Z,10.45
2023-02-13T13:27:45.723Z,10.41
2023-02-13T13:32:54.861Z,10.36
2023-02-13T13:38:08.686Z,10.29
2023-02-13T13:43:37.610Z,10.37
2023-02-13T13:49:01.427Z,10.32
2023-02-13T13:54:03.203Z,10.16
2023-02-13T13:59:17.437Z,10.09
2023-02-13T14:04:43.586Z,9.99
2023-02-13T14:09:46.254Z,9.98
2023-02-13T14:14:48.250Z,9.89
2023-02-13T14:19:53.279Z,9.93
2023-02-13T14:24:58.466Z,9.93
2023-02-13T14:30:01.544Z,9.86
2023-02-13T14:35:12.716Z,9.77
2023-02-13T14:40:17.754Z,9.67
2023-02-13T14:45:27.398Z,9.56
2023-02-13T14:50:46.026Z,9.53
2023-02-13T14:55:54.006Z,9.44
2023-02-13T15:06:44.510Z,8.49
2023-02-13T15:11:47.487Z,8.76
2023-02-13T15:16:54.834Z,8.66
2023-02-13T15:22:02.079Z,8.60
2023-02-13T15:27:07.594Z,8.64
2023-02-13T15:53:16.913Z,6.93
2023-02-13T15:58:18.916Z,7.50
2023-02-13T16:03:21.106Z,7.80
2023-02-13T16:08:36.106Z,8.07
2023-02-13T16:13:38.125Z,8.21
2023-02-13T16:18:40.952Z,8.14
2023-02-13T16:23:45.398Z,8.19
2023-02-13T16:28:47.749Z,8.24
2023-02-13T16:33:49.735Z,8.10
2023-02-13T16:38:51.667Z,7.98
2023-02-13T16:43:58.600Z,8.00
2023-02-13T16:49:03.682Z,7.98
2023-02-13T16:54:11.439Z,8.02
2023-02-13T16:59:22.516Z,8.11
2023-02-13T17:04:25.468Z,8.03
2023-02-13T17:09:27.346Z,7.92
2023-02-13T17:14:29.172Z,7.95
2023-02-13T17:19:31.036Z,7.85
2023-02-13T17:24:33.095Z,7.81
2023-02-13T17:29:34.918Z,7.78
2023-02-13T17:34:36.774Z,7.77
2023-02-13T17:39:39.193Z,7.82
2023-02-13T17:44:41.029Z,7.72
2023-02-13T17:49:42.916Z,7.75
2023-02-13T17:54:45.517Z,7.76
2023-02-13T17:59:48.015Z,7.81
2023-02-13T18:04:51.109Z,7.79
2023-02-13T18:09:52.970Z,7.61
2023-02-13T18:14:55.039Z,7.64
2023-02-13T18:19:58.085Z,7.69
2023-02-13T18:25:01.406Z,7.82
2023-02-13T18:30:03.964Z,7.69
2023-02-13T18:35:07.483Z,7.75
2023-02-13T18:40:10.157Z,7.68
2023-02-13T18:45:12.417Z,7.73
2023-02-13T18:50:14.280Z,7.75
2023-02-13T18:55:16.840Z,7.83
2023-02-13T19:00:22.668Z,7.81
2023-02-13T19:05:24.981Z,7.73
2023-02-13T19:10:27.255Z,7.59
2023-02-13T19:15:29.139Z,7.69
2023-02-13T19:20:31.501Z,7.77
2023-02-13T19:25:38.446Z,7.71
2023-02-13T19:30:40.536Z,7.69
2023-02-13T19:35:43.301Z,7.70
2023-02-13T19:40:46.149Z,7.79
2023-02-13T19:45:48.080Z,7.93
2023-02-13T19:50:49.906Z,8.06
2023-02-13T19:55:59.654Z,8.07
2023-02-13T20:01:16.388Z,7.92
2023-02-13T20:06:28.321Z,7.91
2023-02-13T20:11:30.206Z,7.94
2023-02-13T20:16:35.191Z,8.00
2023-02-13T20:21:37.918Z,8.05
2023-02-13T20:26:40.722Z,8.11
2023-02-13T20:31:42.745Z,8.30
2023-02-13T20:36:45.171Z,8.31
2023-02-13T20:41:50.441Z,8.16
2023-02-13T20:46:53.172Z,8.21
2023-02-13T20:51:55.785Z,8.09
2023-02-13T20:56:57.638Z,8.10
2023-02-13T21:01:59.677Z,8.22
2023-02-13T21:07:01.596Z,8.23
2023-02-13T21:12:06.001Z,8.13
2023-02-13T21:17:09.697Z,8.08
2023-02-13T21:22:12.216Z,8.08
2023-02-13T21:27:14.340Z,8.12
2023-02-13T21:32:16.231Z,8.14
2023-02-13T21:37:18.112Z,8.20
2023-02-13T21:42:20.272Z,8.20
2023-02-13T21:47:22.148Z,8.21
2023-02-13T21:52:24.220Z,8.19
2023-02-13T21:57:26.138Z,8.21
2023-02-13T22:02:28.873Z,8.20
2023-02-13T22:07:30.776Z,8.28
2023-02-13T22:12:32.642Z,8.32
2023-02-13T22:17:36.860Z,8.36
2023-02-13T22:22:38.697Z,8.39
2023-02-13T22:27:49.096Z,8.39
2023-02-13T22:32:50.914Z,8.32
2023-02-13T22:37:52.734Z,8.32
2023-02-13T22:42:54.547Z,8.32
2023-02-13T22:47:56.459Z,8.23
2023-02-13T22:52:58.464Z,8.22
2023-02-13T22:58:00.285Z,8.25
2023-02-13T23:03:02.092Z,8.28
2023-02-13T23:08:04.035Z,8.33
2023-02-13T23:13:10.608Z,8.36
2023-02-13T23:18:15.584Z,8.41
2023-02-13T23:23:17.701Z,8.36
2023-02-13T23:28:19.471Z,8.42
2023-02-13T23:33:21.650Z,8.41
2023-02-13T23:38:23.932Z,8.46
2023-02-13T23:43:25.702Z,8.47
2023-02-13T23:48:27.471Z,8.48
2023-02-13T23:53:29.366Z,8.47
2023-02-13T23:58:31.154Z,8.47
